Погода Висятына 2 недели

Витебская область, Белоруссия

24 мая-06 июня
  • 24мая
    Сегодня
    +11°
    +25°
    Ясно и безоблачно
    ВремяПогодаТемператураВлажностьДавлениеВетер, м/сВероятность осадков
    00:00Практически безоблачно+16°C80 %757 мм1.6 м/с2 %
    03:00Ясно и безоблачно+15°C65 %757 мм1.6 м/с2 %
    06:00Ясно и безоблачно+13°C68 %758 мм1.6 м/с2 %
    09:00Ясно и безоблачно+18°C64 %758 мм2.5 м/с2 %
    12:00Ясно и безоблачно+23°C52 %759 мм3.5 м/с2 %
    15:00Ясно и безоблачно+25°C44 %758 мм3.5 м/с2 %
    18:00Ясно и безоблачно+24°C46 %757 мм3.2 м/с2 %
    21:00Ясно и безоблачно+20°C63 %758 мм2.3 м/с2 %
  • 25мая
    Суббота
    +11°
    +26°
    Практически безоблачно
    ВремяПогодаТемператураВлажностьДавлениеВетер, м/сВероятность осадков
    00:00Ясно и безоблачно+16°C62 %758 мм1.8 м/с2 %
    03:00Ясно и безоблачно+13°C68 %758 мм1.2 м/с2 %
    06:00Ясно и безоблачно+12°C71 %758 мм1.3 м/с2 %
    09:00Ясно и безоблачно+19°C63 %758 мм1.9 м/с2 %
    12:00Ясно и безоблачно+24°C51 %758 мм3.0 м/с2 %
    15:00Практически безоблачно+26°C40 %757 мм2.8 м/с2 %
    18:00Небольшая облачность+25°C45 %756 мм2.4 м/с7 %
    21:00Небольшая облачность+20°C69 %756 мм1.3 м/с5 %
  • 26мая
    Воскресенье
    +12°
    +27°
    Небольшая облачность
    ВремяПогодаТемператураВлажностьДавлениеВетер, м/сВероятность осадков
    00:00Ясно и безоблачно+15°C84 %756 мм0.9 м/с1 %
    03:00Ясно и безоблачно+12°C92 %756 мм0.6 м/с1 %
    06:00Ясно и безоблачно+13°C89 %756 мм0.6 м/с1 %
    09:00Ясно и безоблачно+18°C69 %757 мм0.5 м/с2 %
    12:00Ясно и безоблачно+24°C42 %757 мм1.9 м/с2 %
    15:00Небольшая облачность+26°C39 %757 мм1.9 м/с2 %
    18:00Практически безоблачно+25°C36 %756 мм1.6 м/с2 %
    21:00Ясно и безоблачно+21°C56 %756 мм0.8 м/с2 %
  • 27мая
    Понедельник
    +14°
    +27°
    Ясно и безоблачно
    ВремяПогодаТемператураВлажностьДавлениеВетер, м/сВероятность осадков
    00:00Ясно и безоблачно+16°C79 %756 мм1.0 м/с2 %
    03:00Ясно и безоблачно+14°C82 %756 мм0.4 м/с2 %
    06:00Ясно и безоблачно+14°C78 %757 мм0.7 м/с2 %
    09:00Ясно и безоблачно+19°C64 %757 мм0.7 м/с2 %
    12:00Ясно и безоблачно+24°C38 %757 мм2.1 м/с2 %
    15:00Ясно и безоблачно+25°C39 %756 мм1.9 м/с3 %
    18:00Практически безоблачно+24°C40 %755 мм1.6 м/с19 %
    21:00Ясно и безоблачно+22°C63 %755 мм1.1 м/с6 %
  • 28мая
    Вторник
    +14°
    +27°
    Ясно и безоблачно
    ВремяПогодаТемператураВлажностьДавлениеВетер, м/сВероятность осадков
    00:00Ясно и безоблачно+16°C79 %755 мм0.9 м/с2 %
    03:00Ясно и безоблачно+13°C85 %755 мм0.6 м/с2 %
    06:00Ясно и безоблачно+14°C88 %755 мм0.6 м/с2 %
    09:00Ясно и безоблачно+20°C70 %755 мм1.0 м/с2 %
    12:00Практически безоблачно+24°C47 %755 мм2.1 м/с7 %
    15:00Ясно и безоблачно+26°C44 %754 мм2.1 м/с18 %
    18:00Практически безоблачно+24°C45 %753 мм2.0 м/с24 %
    21:00Ясно и безоблачно+22°C66 %753 мм1.3 м/с5 %
Мы используем cookies
Соглашаюсь